sensor_id;sensor_type;location;lat;lon;timestamp;P1;durP1;ratioP1;P2;durP2;ratioP2
31730;SDS011;18310;55.586;12.286;2023-07-28T00:00:52;6.07;;;3.58;;
31730;SDS011;18310;55.586;12.286;2023-07-28T00:03:55;11.15;;;4.20;;
31730;SDS011;18310;55.586;12.286;2023-07-28T00:06:59;5.40;;;3.25;;
31730;SDS011;18310;55.586;12.286;2023-07-28T00:10:03;5.35;;;3.60;;
31730;SDS011;18310;55.586;12.286;2023-07-28T00:13:08;7.25;;;3.80;;
31730;SDS011;18310;55.586;12.286;2023-07-28T00:16:12;4.85;;;3.05;;
31730;SDS011;18310;55.586;12.286;2023-07-28T00:22:19;6.40;;;3.30;;
31730;SDS011;18310;55.586;12.286;2023-07-28T00:25:22;6.35;;;3.42;;
31730;SDS011;18310;55.586;12.286;2023-07-28T00:28:27;5.65;;;3.33;;
31730;SDS011;18310;55.586;12.286;2023-07-28T00:31:30;4.00;;;2.80;;
31730;SDS011;18310;55.586;12.286;2023-07-28T00:34:33;5.30;;;2.75;;
31730;SDS011;18310;55.586;12.286;2023-07-28T00:37:36;4.55;;;2.85;;
31730;SDS011;18310;55.586;12.286;2023-07-28T00:40:39;4.47;;;2.55;;
31730;SDS011;18310;55.586;12.286;2023-07-28T00:43:44;4.25;;;2.33;;
31730;SDS011;18310;55.586;12.286;2023-07-28T00:46:46;5.30;;;3.17;;
31730;SDS011;18310;55.586;12.286;2023-07-28T00:49:50;6.37;;;3.23;;
31730;SDS011;18310;55.586;12.286;2023-07-28T00:53:15;6.63;;;3.63;;
31730;SDS011;18310;55.586;12.286;2023-07-28T00:56:19;8.60;;;3.90;;
31730;SDS011;18310;55.586;12.286;2023-07-28T00:59:24;5.20;;;3.10;;
31730;SDS011;18310;55.586;12.286;2023-07-28T01:02:27;4.77;;;2.13;;
31730;SDS011;18310;55.586;12.286;2023-07-28T01:05:32;4.75;;;2.67;;
31730;SDS011;18310;55.586;12.286;2023-07-28T01:08:45;4.88;;;2.38;;
31730;SDS011;18310;55.586;12.286;2023-07-28T01:11:52;5.03;;;2.42;;
31730;SDS011;18310;55.586;12.286;2023-07-28T01:14:56;4.50;;;2.40;;
31730;SDS011;18310;55.586;12.286;2023-07-28T01:17:59;4.93;;;2.80;;
31730;SDS011;18310;55.586;12.286;2023-07-28T01:21:03;6.13;;;2.83;;
31730;SDS011;18310;55.586;12.286;2023-07-28T01:24:13;4.28;;;2.65;;
31730;SDS011;18310;55.586;12.286;2023-07-28T01:27:22;4.03;;;2.47;;
31730;SDS011;18310;55.586;12.286;2023-07-28T01:30:26;4.07;;;2.08;;
31730;SDS011;18310;55.586;12.286;2023-07-28T01:33:31;3.83;;;2.13;;
31730;SDS011;18310;55.586;12.286;2023-07-28T01:36:34;4.57;;;2.45;;
31730;SDS011;18310;55.586;12.286;2023-07-28T01:39:38;4.50;;;2.80;;
31730;SDS011;18310;55.586;12.286;2023-07-28T01:42:43;4.55;;;2.60;;
31730;SDS011;18310;55.586;12.286;2023-07-28T01:45:47;4.88;;;2.38;;
31730;SDS011;18310;55.586;12.286;2023-07-28T01:48:50;4.57;;;2.50;;
31730;SDS011;18310;55.586;12.286;2023-07-28T01:51:54;5.40;;;2.40;;
31730;SDS011;18310;55.586;12.286;2023-07-28T01:54:58;4.05;;;2.22;;
31730;SDS011;18310;55.586;12.286;2023-07-28T01:58:04;7.50;;;3.00;;
31730;SDS011;18310;55.586;12.286;2023-07-28T02:01:07;4.55;;;2.30;;
31730;SDS011;18310;55.586;12.286;2023-07-28T02:04:11;4.72;;;2.80;;
31730;SDS011;18310;55.586;12.286;2023-07-28T02:07:14;4.32;;;2.70;;
31730;SDS011;18310;55.586;12.286;2023-07-28T02:10:18;6.28;;;3.42;;
31730;SDS011;18310;55.586;12.286;2023-07-28T02:13:23;5.43;;;2.83;;
31730;SDS011;18310;55.586;12.286;2023-07-28T02:16:27;4.95;;;2.28;;
31730;SDS011;18310;55.586;12.286;2023-07-28T02:19:32;3.50;;;2.15;;
31730;SDS011;18310;55.586;12.286;2023-07-28T02:22:36;4.00;;;2.20;;
31730;SDS011;18310;55.586;12.286;2023-07-28T02:25:40;4.15;;;2.13;;
31730;SDS011;18310;55.586;12.286;2023-07-28T02:28:44;4.00;;;2.40;;
31730;SDS011;18310;55.586;12.286;2023-07-28T02:31:48;5.35;;;2.42;;
31730;SDS011;18310;55.586;12.286;2023-07-28T02:34:52;4.00;;;2.30;;
31730;SDS011;18310;55.586;12.286;2023-07-28T02:37:55;4.65;;;2.75;;
31730;SDS011;18310;55.586;12.286;2023-07-28T02:40:58;4.80;;;2.30;;
31730;SDS011;18310;55.586;12.286;2023-07-28T02:44:03;5.03;;;2.73;;
31730;SDS011;18310;55.586;12.286;2023-07-28T02:47:07;3.80;;;2.28;;
31730;SDS011;18310;55.586;12.286;2023-07-28T02:50:10;4.68;;;2.58;;
31730;SDS011;18310;55.586;12.286;2023-07-28T02:53:14;4.57;;;2.03;;
31730;SDS011;18310;55.586;12.286;2023-07-28T02:56:17;5.20;;;2.77;;
31730;SDS011;18310;55.586;12.286;2023-07-28T02:59:23;5.43;;;2.53;;
31730;SDS011;18310;55.586;12.286;2023-07-28T03:02:27;5.55;;;2.50;;
31730;SDS011;18310;55.586;12.286;2023-07-28T03:05:30;4.70;;;2.60;;
31730;SDS011;18310;55.586;12.286;2023-07-28T03:08:34;9.20;;;2.75;;
31730;SDS011;18310;55.586;12.286;2023-07-28T03:11:38;8.10;;;2.83;;
31730;SDS011;18310;55.586;12.286;2023-07-28T03:14:43;4.25;;;2.63;;
31730;SDS011;18310;55.586;12.286;2023-07-28T03:17:46;4.10;;;2.50;;
31730;SDS011;18310;55.586;12.286;2023-07-28T03:20:50;7.78;;;2.83;;
31730;SDS011;18310;55.586;12.286;2023-07-28T03:23:53;4.70;;;2.50;;
31730;SDS011;18310;55.586;12.286;2023-07-28T03:26:57;5.18;;;2.58;;
31730;SDS011;18310;55.586;12.286;2023-07-28T03:30:03;4.45;;;2.08;;
31730;SDS011;18310;55.586;12.286;2023-07-28T03:33:08;4.80;;;1.95;;
31730;SDS011;18310;55.586;12.286;2023-07-28T03:36:12;5.78;;;2.47;;
31730;SDS011;18310;55.586;12.286;2023-07-28T03:39:15;6.82;;;2.45;;
31730;SDS011;18310;55.586;12.286;2023-07-28T03:42:19;4.15;;;2.35;;
31730;SDS011;18310;55.586;12.286;2023-07-28T03:45:24;5.93;;;2.77;;
31730;SDS011;18310;55.586;12.286;2023-07-28T03:48:27;3.80;;;2.53;;
31730;SDS011;18310;55.586;12.286;2023-07-28T03:51:49;4.93;;;2.55;;
31730;SDS011;18310;55.586;12.286;2023-07-28T03:54:56;5.50;;;2.60;;
31730;SDS011;18310;55.586;12.286;2023-07-28T03:57:59;5.57;;;2.58;;
31730;SDS011;18310;55.586;12.286;2023-07-28T04:04:09;4.93;;;2.33;;
31730;SDS011;18310;55.586;12.286;2023-07-28T04:07:14;4.93;;;2.40;;
31730;SDS011;18310;55.586;12.286;2023-07-28T04:10:17;6.40;;;2.42;;
31730;SDS011;18310;55.586;12.286;2023-07-28T04:13:20;3.63;;;2.30;;
31730;SDS011;18310;55.586;12.286;2023-07-28T04:16:23;7.28;;;3.00;;
31730;SDS011;18310;55.586;12.286;2023-07-28T04:19:27;5.10;;;2.40;;
31730;SDS011;18310;55.586;12.286;2023-07-28T04:25:36;3.28;;;2.25;;
31730;SDS011;18310;55.586;12.286;2023-07-28T04:28:40;11.13;;;2.40;;
31730;SDS011;18310;55.586;12.286;2023-07-28T04:31:43;4.10;;;2.60;;
31730;SDS011;18310;55.586;12.286;2023-07-28T04:34:47;8.70;;;2.65;;
31730;SDS011;18310;55.586;12.286;2023-07-28T04:37:52;4.03;;;2.42;;
31730;SDS011;18310;55.586;12.286;2023-07-28T04:40:56;4.40;;;2.42;;
31730;SDS011;18310;55.586;12.286;2023-07-28T04:43:59;4.40;;;2.90;;
31730;SDS011;18310;55.586;12.286;2023-07-28T04:47:03;6.85;;;3.80;;
31730;SDS011;18310;55.586;12.286;2023-07-28T04:50:07;4.53;;;3.03;;
31730;SDS011;18310;55.586;12.286;2023-07-28T04:53:12;6.82;;;2.75;;
31730;SDS011;18310;55.586;12.286;2023-07-28T04:56:15;6.30;;;3.05;;
31730;SDS011;18310;55.586;12.286;2023-07-28T04:59:19;7.15;;;3.30;;
31730;SDS011;18310;55.586;12.286;2023-07-28T05:02:22;6.70;;;3.22;;
31730;SDS011;18310;55.586;12.286;2023-07-28T05:05:26;5.20;;;3.00;;
31730;SDS011;18310;55.586;12.286;2023-07-28T05:08:33;4.68;;;2.65;;
31730;SDS011;18310;55.586;12.286;2023-07-28T05:11:36;5.28;;;3.17;;
31730;SDS011;18310;55.586;12.286;2023-07-28T05:14:39;6.47;;;3.37;;
31730;SDS011;18310;55.586;12.286;2023-07-28T05:17:43;12.93;;;3.67;;
31730;SDS011;18310;55.586;12.286;2023-07-28T05:20:47;7.22;;;3.30;;
31730;SDS011;18310;55.586;12.286;2023-07-28T05:26:55;6.60;;;3.10;;
31730;SDS011;18310;55.586;12.286;2023-07-28T05:29:58;5.90;;;3.10;;
31730;SDS011;18310;55.586;12.286;2023-07-28T05:33:02;5.83;;;3.03;;
31730;SDS011;18310;55.586;12.286;2023-07-28T05:36:05;4.53;;;2.78;;
31730;SDS011;18310;55.586;12.286;2023-07-28T05:39:11;9.03;;;3.00;;
31730;SDS011;18310;55.586;12.286;2023-07-28T05:42:15;6.38;;;2.95;;
31730;SDS011;18310;55.586;12.286;2023-07-28T05:45:19;6.38;;;3.38;;
31730;SDS011;18310;55.586;12.286;2023-07-28T05:48:22;5.22;;;2.78;;
31730;SDS011;18310;55.586;12.286;2023-07-28T05:51:26;7.95;;;3.55;;
31730;SDS011;18310;55.586;12.286;2023-07-28T05:54:30;6.72;;;3.03;;
31730;SDS011;18310;55.586;12.286;2023-07-28T05:57:33;5.60;;;2.83;;
31730;SDS011;18310;55.586;12.286;2023-07-28T06:00:38;5.90;;;2.97;;
31730;SDS011;18310;55.586;12.286;2023-07-28T06:03:41;9.25;;;3.55;;
31730;SDS011;18310;55.586;12.286;2023-07-28T06:06:46;6.18;;;3.38;;
31730;SDS011;18310;55.586;12.286;2023-07-28T06:09:51;6.18;;;3.80;;
31730;SDS011;18310;55.586;12.286;2023-07-28T06:12:54;9.23;;;3.65;;
31730;SDS011;18310;55.586;12.286;2023-07-28T06:15:58;9.70;;;3.08;;
31730;SDS011;18310;55.586;12.286;2023-07-28T06:22:05;5.22;;;3.20;;
31730;SDS011;18310;55.586;12.286;2023-07-28T06:25:10;7.07;;;3.35;;
31730;SDS011;18310;55.586;12.286;2023-07-28T06:28:13;5.40;;;3.10;;
31730;SDS011;18310;55.586;12.286;2023-07-28T06:31:16;8.43;;;2.90;;
31730;SDS011;18310;55.586;12.286;2023-07-28T06:34:20;8.90;;;3.00;;
31730;SDS011;18310;55.586;12.286;2023-07-28T06:37:23;4.63;;;2.80;;
31730;SDS011;18310;55.586;12.286;2023-07-28T06:40:27;3.55;;;2.45;;
31730;SDS011;18310;55.586;12.286;2023-07-28T06:43:31;5.25;;;2.30;;
31730;SDS011;18310;55.586;12.286;2023-07-28T06:46:34;4.88;;;2.53;;
31730;SDS011;18310;55.586;12.286;2023-07-28T06:49:37;4.35;;;2.60;;
31730;SDS011;18310;55.586;12.286;2023-07-28T06:52:40;4.82;;;2.47;;
31730;SDS011;18310;55.586;12.286;2023-07-28T06:55:45;4.05;;;2.25;;
31730;SDS011;18310;55.586;12.286;2023-07-28T06:58:48;5.43;;;2.20;;
31730;SDS011;18310;55.586;12.286;2023-07-28T07:02:14;5.28;;;2.08;;
31730;SDS011;18310;55.586;12.286;2023-07-28T07:05:17;4.25;;;2.05;;
31730;SDS011;18310;55.586;12.286;2023-07-28T07:08:21;3.40;;;1.83;;
31730;SDS011;18310;55.586;12.286;2023-07-28T07:11:24;3.45;;;1.90;;
31730;SDS011;18310;55.586;12.286;2023-07-28T07:14:49;3.42;;;2.20;;
31730;SDS011;18310;55.586;12.286;2023-07-28T07:17:53;4.10;;;2.00;;
31730;SDS011;18310;55.586;12.286;2023-07-28T07:21:00;4.32;;;2.22;;
31730;SDS011;18310;55.586;12.286;2023-07-28T07:24:04;4.55;;;2.15;;
31730;SDS011;18310;55.586;12.286;2023-07-28T07:27:07;3.08;;;1.63;;
31730;SDS011;18310;55.586;12.286;2023-07-28T07:30:13;4.78;;;1.67;;
31730;SDS011;18310;55.586;12.286;2023-07-28T07:33:16;3.28;;;1.80;;
31730;SDS011;18310;55.586;12.286;2023-07-28T07:36:20;5.00;;;1.70;;
31730;SDS011;18310;55.586;12.286;2023-07-28T07:39:23;3.40;;;1.60;;
31730;SDS011;18310;55.586;12.286;2023-07-28T07:42:28;5.13;;;1.83;;
31730;SDS011;18310;55.586;12.286;2023-07-28T07:45:32;3.30;;;1.60;;
31730;SDS011;18310;55.586;12.286;2023-07-28T07:48:36;3.25;;;1.40;;
31730;SDS011;18310;55.586;12.286;2023-07-28T07:51:39;3.00;;;1.27;;
31730;SDS011;18310;55.586;12.286;2023-07-28T07:54:42;6.72;;;2.10;;
31730;SDS011;18310;55.586;12.286;2023-07-28T07:57:45;3.90;;;1.50;;
31730;SDS011;18310;55.586;12.286;2023-07-28T08:00:49;3.67;;;2.00;;
31730;SDS011;18310;55.586;12.286;2023-07-28T08:03:52;4.53;;;1.98;;
31730;SDS011;18310;55.586;12.286;2023-07-28T08:07:39;4.88;;;2.15;;
31730;SDS011;18310;55.586;12.286;2023-07-28T08:10:43;2.80;;;1.40;;
31730;SDS011;18310;55.586;12.286;2023-07-28T08:13:46;3.37;;;1.40;;
31730;SDS011;18310;55.586;12.286;2023-07-28T08:16:50;2.90;;;1.23;;
31730;SDS011;18310;55.586;12.286;2023-07-28T08:19:55;2.80;;;1.42;;
31730;SDS011;18310;55.586;12.286;2023-07-28T08:22:59;3.03;;;1.53;;
31730;SDS011;18310;55.586;12.286;2023-07-28T08:26:02;2.22;;;1.45;;
31730;SDS011;18310;55.586;12.286;2023-07-28T08:29:05;6.63;;;2.10;;
31730;SDS011;18310;55.586;12.286;2023-07-28T08:32:08;3.93;;;1.73;;
31730;SDS011;18310;55.586;12.286;2023-07-28T08:35:11;3.63;;;1.77;;
31730;SDS011;18310;55.586;12.286;2023-07-28T08:38:16;5.23;;;1.97;;
31730;SDS011;18310;55.586;12.286;2023-07-28T08:41:19;3.70;;;1.98;;
31730;SDS011;18310;55.586;12.286;2023-07-28T08:44:22;3.72;;;1.83;;
31730;SDS011;18310;55.586;12.286;2023-07-28T08:47:25;3.83;;;1.60;;
31730;SDS011;18310;55.586;12.286;2023-07-28T08:50:28;3.65;;;1.80;;
31730;SDS011;18310;55.586;12.286;2023-07-28T08:53:33;2.47;;;1.23;;
31730;SDS011;18310;55.586;12.286;2023-07-28T08:56:36;4.25;;;1.48;;
31730;SDS011;18310;55.586;12.286;2023-07-28T08:59:39;3.23;;;1.83;;
31730;SDS011;18310;55.586;12.286;2023-07-28T09:02:48;3.00;;;1.50;;
31730;SDS011;18310;55.586;12.286;2023-07-28T09:06:15;4.80;;;2.17;;
31730;SDS011;18310;55.586;12.286;2023-07-28T09:09:20;3.42;;;2.22;;
31730;SDS011;18310;55.586;12.286;2023-07-28T09:12:25;4.50;;;2.08;;
31730;SDS011;18310;55.586;12.286;2023-07-28T09:15:29;3.27;;;2.13;;
31730;SDS011;18310;55.586;12.286;2023-07-28T09:18:37;3.20;;;1.67;;
31730;SDS011;18310;55.586;12.286;2023-07-28T09:21:43;3.73;;;2.00;;
31730;SDS011;18310;55.586;12.286;2023-07-28T09:24:48;3.55;;;1.92;;
31730;SDS011;18310;55.586;12.286;2023-07-28T09:27:52;6.05;;;2.20;;
31730;SDS011;18310;55.586;12.286;2023-07-28T09:30:56;4.57;;;2.13;;
31730;SDS011;18310;55.586;12.286;2023-07-28T09:33:59;4.00;;;1.80;;
31730;SDS011;18310;55.586;12.286;2023-07-28T09:37:04;3.55;;;1.83;;
31730;SDS011;18310;55.586;12.286;2023-07-28T09:40:10;3.83;;;2.17;;
31730;SDS011;18310;55.586;12.286;2023-07-28T09:43:14;5.22;;;2.15;;
31730;SDS011;18310;55.586;12.286;2023-07-28T09:46:45;3.83;;;1.90;;
31730;SDS011;18310;55.586;12.286;2023-07-28T09:49:57;3.65;;;2.20;;
31730;SDS011;18310;55.586;12.286;2023-07-28T09:53:04;3.33;;;2.00;;
31730;SDS011;18310;55.586;12.286;2023-07-28T09:56:12;3.38;;;1.90;;
31730;SDS011;18310;55.586;12.286;2023-07-28T09:59:17;3.20;;;1.70;;
31730;SDS011;18310;55.586;12.286;2023-07-28T10:02:23;4.28;;;1.95;;
31730;SDS011;18310;55.586;12.286;2023-07-28T10:05:26;3.50;;;1.60;;
31730;SDS011;18310;55.586;12.286;2023-07-28T10:08:31;3.58;;;1.48;;
31730;SDS011;18310;55.586;12.286;2023-07-28T10:11:34;4.47;;;1.70;;
31730;SDS011;18310;55.586;12.286;2023-07-28T10:14:38;2.67;;;1.77;;
31730;SDS011;18310;55.586;12.286;2023-07-28T10:17:44;2.83;;;1.65;;
31730;SDS011;18310;55.586;12.286;2023-07-28T10:20:49;3.25;;;1.70;;
31730;SDS011;18310;55.586;12.286;2023-07-28T10:23:56;6.50;;;1.90;;
31730;SDS011;18310;55.586;12.286;2023-07-28T10:27:00;2.97;;;1.65;;
31730;SDS011;18310;55.586;12.286;2023-07-28T10:30:04;3.53;;;1.97;;
31730;SDS011;18310;55.586;12.286;2023-07-28T10:33:26;4.03;;;1.80;;
31730;SDS011;18310;55.586;12.286;2023-07-28T10:36:32;3.80;;;1.75;;
31730;SDS011;18310;55.586;12.286;2023-07-28T10:39:37;3.90;;;2.17;;
31730;SDS011;18310;55.586;12.286;2023-07-28T10:42:40;3.58;;;1.75;;
31730;SDS011;18310;55.586;12.286;2023-07-28T10:45:43;3.00;;;1.80;;
31730;SDS011;18310;55.586;12.286;2023-07-28T10:48:48;4.67;;;2.03;;
31730;SDS011;18310;55.586;12.286;2023-07-28T10:51:52;2.95;;;1.70;;
31730;SDS011;18310;55.586;12.286;2023-07-28T10:54:56;3.30;;;1.40;;
31730;SDS011;18310;55.586;12.286;2023-07-28T10:57:59;4.00;;;2.17;;
31730;SDS011;18310;55.586;12.286;2023-07-28T11:01:02;4.30;;;1.97;;
31730;SDS011;18310;55.586;12.286;2023-07-28T11:04:08;4.20;;;2.03;;
31730;SDS011;18310;55.586;12.286;2023-07-28T11:07:13;3.95;;;1.95;;
31730;SDS011;18310;55.586;12.286;2023-07-28T11:10:16;2.77;;;1.50;;
31730;SDS011;18310;55.586;12.286;2023-07-28T11:13:19;3.13;;;1.70;;
31730;SDS011;18310;55.586;12.286;2023-07-28T11:16:27;3.50;;;1.85;;
31730;SDS011;18310;55.586;12.286;2023-07-28T11:19:31;4.13;;;1.70;;
31730;SDS011;18310;55.586;12.286;2023-07-28T11:22:36;5.45;;;1.83;;
31730;SDS011;18310;55.586;12.286;2023-07-28T11:25:39;2.67;;;1.53;;
31730;SDS011;18310;55.586;12.286;2023-07-28T11:28:43;3.05;;;1.73;;
31730;SDS011;18310;55.586;12.286;2023-07-28T11:31:47;3.70;;;2.10;;
31730;SDS011;18310;55.586;12.286;2023-07-28T11:34:52;4.22;;;1.90;;
31730;SDS011;18310;55.586;12.286;2023-07-28T11:37:55;4.03;;;1.50;;
31730;SDS011;18310;55.586;12.286;2023-07-28T11:40:59;4.18;;;1.88;;
31730;SDS011;18310;55.586;12.286;2023-07-28T11:44:02;4.85;;;1.70;;
31730;SDS011;18310;55.586;12.286;2023-07-28T11:47:06;3.03;;;1.65;;
31730;SDS011;18310;55.586;12.286;2023-07-28T11:50:12;2.80;;;1.40;;
31730;SDS011;18310;55.586;12.286;2023-07-28T11:53:25;3.10;;;1.55;;
31730;SDS011;18310;55.586;12.286;2023-07-28T11:59:31;3.60;;;1.77;;
31730;SDS011;18310;55.586;12.286;2023-07-28T12:02:35;5.28;;;1.55;;
31730;SDS011;18310;55.586;12.286;2023-07-28T12:05:40;3.35;;;1.85;;
31730;SDS011;18310;55.586;12.286;2023-07-28T12:08:48;4.88;;;1.75;;
31730;SDS011;18310;55.586;12.286;2023-07-28T12:11:51;3.73;;;1.67;;
31730;SDS011;18310;55.586;12.286;2023-07-28T12:14:59;2.88;;;1.27;;
31730;SDS011;18310;55.586;12.286;2023-07-28T12:18:09;3.00;;;1.80;;
31730;SDS011;18310;55.586;12.286;2023-07-28T12:21:18;3.83;;;1.88;;
31730;SDS011;18310;55.586;12.286;2023-07-28T12:24:22;3.33;;;1.98;;
31730;SDS011;18310;55.586;12.286;2023-07-28T12:28:43;5.55;;;1.63;;
31730;SDS011;18310;55.586;12.286;2023-07-28T12:31:46;3.90;;;1.73;;
31730;SDS011;18310;55.586;12.286;2023-07-28T12:34:50;12.85;;;2.53;;
31730;SDS011;18310;55.586;12.286;2023-07-28T12:37:53;3.45;;;1.77;;
31730;SDS011;18310;55.586;12.286;2023-07-28T12:40:58;4.53;;;1.85;;
31730;SDS011;18310;55.586;12.286;2023-07-28T12:44:06;3.38;;;1.80;;
31730;SDS011;18310;55.586;12.286;2023-07-28T12:47:12;4.25;;;2.03;;
31730;SDS011;18310;55.586;12.286;2023-07-28T12:50:15;4.23;;;1.83;;
31730;SDS011;18310;55.586;12.286;2023-07-28T12:53:20;3.78;;;1.73;;
31730;SDS011;18310;55.586;12.286;2023-07-28T12:56:24;5.18;;;2.25;;
31730;SDS011;18310;55.586;12.286;2023-07-28T12:59:32;5.20;;;1.90;;
31730;SDS011;18310;55.586;12.286;2023-07-28T13:02:55;3.92;;;2.00;;
31730;SDS011;18310;55.586;12.286;2023-07-28T13:05:58;3.85;;;1.60;;
31730;SDS011;18310;55.586;12.286;2023-07-28T13:09:02;3.40;;;1.58;;
31730;SDS011;18310;55.586;12.286;2023-07-28T13:12:08;5.85;;;1.80;;
31730;SDS011;18310;55.586;12.286;2023-07-28T13:15:16;3.83;;;1.88;;
31730;SDS011;18310;55.586;12.286;2023-07-28T13:18:19;6.93;;;1.63;;
31730;SDS011;18310;55.586;12.286;2023-07-28T13:21:22;3.80;;;2.10;;
31730;SDS011;18310;55.586;12.286;2023-07-28T13:24:25;4.20;;;1.80;;
31730;SDS011;18310;55.586;12.286;2023-07-28T13:27:28;5.10;;;2.00;;
31730;SDS011;18310;55.586;12.286;2023-07-28T13:30:33;3.83;;;1.80;;
31730;SDS011;18310;55.586;12.286;2023-07-28T13:33:36;3.20;;;1.60;;
31730;SDS011;18310;55.586;12.286;2023-07-28T13:36:39;7.45;;;2.10;;
31730;SDS011;18310;55.586;12.286;2023-07-28T13:39:45;3.83;;;1.83;;
31730;SDS011;18310;55.586;12.286;2023-07-28T13:42:48;3.70;;;1.67;;
31730;SDS011;18310;55.586;12.286;2023-07-28T13:45:52;3.97;;;1.57;;
31730;SDS011;18310;55.586;12.286;2023-07-28T13:50:44;2.60;;;1.75;;
31730;SDS011;18310;55.586;12.286;2023-07-28T13:53:56;4.97;;;1.83;;
31730;SDS011;18310;55.586;12.286;2023-07-28T13:57:02;4.78;;;2.00;;
31730;SDS011;18310;55.586;12.286;2023-07-28T14:00:06;3.13;;;1.63;;
31730;SDS011;18310;55.586;12.286;2023-07-28T14:03:11;5.05;;;1.90;;
31730;SDS011;18310;55.586;12.286;2023-07-28T14:06:15;3.70;;;1.75;;
31730;SDS011;18310;55.586;12.286;2023-07-28T14:09:18;3.90;;;2.10;;
31730;SDS011;18310;55.586;12.286;2023-07-28T14:12:22;3.30;;;1.90;;
31730;SDS011;18310;55.586;12.286;2023-07-28T14:15:25;3.30;;;1.70;;
31730;SDS011;18310;55.586;12.286;2023-07-28T14:18:28;4.55;;;2.13;;
31730;SDS011;18310;55.586;12.286;2023-07-28T14:21:32;3.63;;;1.83;;
31730;SDS011;18310;55.586;12.286;2023-07-28T14:24:39;2.13;;;1.40;;
31730;SDS011;18310;55.586;12.286;2023-07-28T14:27:42;5.40;;;1.73;;
31730;SDS011;18310;55.586;12.286;2023-07-28T14:30:45;2.80;;;1.80;;
31730;SDS011;18310;55.586;12.286;2023-07-28T14:33:49;3.30;;;1.80;;
31730;SDS011;18310;55.586;12.286;2023-07-28T14:36:53;6.17;;;1.70;;
31730;SDS011;18310;55.586;12.286;2023-07-28T14:39:58;4.97;;;1.98;;
31730;SDS011;18310;55.586;12.286;2023-07-28T14:43:01;3.47;;;1.70;;
31730;SDS011;18310;55.586;12.286;2023-07-28T14:46:04;3.93;;;1.97;;
31730;SDS011;18310;55.586;12.286;2023-07-28T14:49:07;3.93;;;1.80;;
31730;SDS011;18310;55.586;12.286;2023-07-28T14:52:11;4.93;;;2.07;;
31730;SDS011;18310;55.586;12.286;2023-07-28T14:55:14;6.03;;;2.10;;
31730;SDS011;18310;55.586;12.286;2023-07-28T14:58:18;3.77;;;1.90;;
31730;SDS011;18310;55.586;12.286;2023-07-28T15:01:21;5.20;;;2.07;;
31730;SDS011;18310;55.586;12.286;2023-07-28T15:04:24;5.18;;;1.88;;
31730;SDS011;18310;55.586;12.286;2023-07-28T15:07:29;3.87;;;2.23;;
31730;SDS011;18310;55.586;12.286;2023-07-28T15:10:32;5.57;;;1.85;;
31730;SDS011;18310;55.586;12.286;2023-07-28T15:13:35;5.28;;;1.83;;
31730;SDS011;18310;55.586;12.286;2023-07-28T15:16:57;3.55;;;1.70;;
31730;SDS011;18310;55.586;12.286;2023-07-28T15:20:00;2.42;;;1.38;;
31730;SDS011;18310;55.586;12.286;2023-07-28T15:23:03;3.27;;;1.57;;
31730;SDS011;18310;55.586;12.286;2023-07-28T15:26:06;4.68;;;2.38;;
31730;SDS011;18310;55.586;12.286;2023-07-28T15:29:10;3.17;;;1.73;;
31730;SDS011;18310;55.586;12.286;2023-07-28T15:32:14;2.40;;;1.30;;
31730;SDS011;18310;55.586;12.286;2023-07-28T15:35:17;6.68;;;1.92;;
31730;SDS011;18310;55.586;12.286;2023-07-28T15:38:21;5.20;;;2.05;;
31730;SDS011;18310;55.586;12.286;2023-07-28T15:41:24;2.90;;;1.70;;
31730;SDS011;18310;55.586;12.286;2023-07-28T15:44:27;5.17;;;1.83;;
31730;SDS011;18310;55.586;12.286;2023-07-28T15:47:31;3.10;;;1.88;;
31730;SDS011;18310;55.586;12.286;2023-07-28T15:50:37;6.18;;;2.13;;
31730;SDS011;18310;55.586;12.286;2023-07-28T15:53:40;2.88;;;1.58;;
31730;SDS011;18310;55.586;12.286;2023-07-28T15:56:43;6.60;;;2.07;;
31730;SDS011;18310;55.586;12.286;2023-07-28T15:59:47;3.40;;;1.67;;
31730;SDS011;18310;55.586;12.286;2023-07-28T16:02:51;6.03;;;1.80;;
31730;SDS011;18310;55.586;12.286;2023-07-28T16:05:54;4.57;;;2.15;;
31730;SDS011;18310;55.586;12.286;2023-07-28T16:08:57;3.80;;;1.80;;
31730;SDS011;18310;55.586;12.286;2023-07-28T16:12:17;6.53;;;1.77;;
31730;SDS011;18310;55.586;12.286;2023-07-28T16:15:21;5.55;;;1.50;;
31730;SDS011;18310;55.586;12.286;2023-07-28T16:18:25;2.90;;;1.85;;
31730;SDS011;18310;55.586;12.286;2023-07-28T16:21:29;3.75;;;1.85;;
31730;SDS011;18310;55.586;12.286;2023-07-28T16:24:32;4.35;;;1.67;;
31730;SDS011;18310;55.586;12.286;2023-07-28T16:27:35;3.63;;;1.85;;
31730;SDS011;18310;55.586;12.286;2023-07-28T16:30:38;3.70;;;2.13;;
31730;SDS011;18310;55.586;12.286;2023-07-28T16:33:43;6.30;;;1.75;;
31730;SDS011;18310;55.586;12.286;2023-07-28T16:36:46;3.42;;;1.63;;
31730;SDS011;18310;55.586;12.286;2023-07-28T16:39:50;7.10;;;2.00;;
31730;SDS011;18310;55.586;12.286;2023-07-28T16:45:57;2.90;;;1.83;;
31730;SDS011;18310;55.586;12.286;2023-07-28T16:49:01;3.37;;;2.00;;
31730;SDS011;18310;55.586;12.286;2023-07-28T16:52:04;3.70;;;1.95;;
31730;SDS011;18310;55.586;12.286;2023-07-28T16:55:08;3.85;;;1.92;;
31730;SDS011;18310;55.586;12.286;2023-07-28T16:58:11;3.87;;;1.70;;
31730;SDS011;18310;55.586;12.286;2023-07-28T17:01:14;4.50;;;1.90;;
31730;SDS011;18310;55.586;12.286;2023-07-28T17:04:19;3.92;;;1.60;;
31730;SDS011;18310;55.586;12.286;2023-07-28T17:07:22;3.42;;;1.70;;
31730;SDS011;18310;55.586;12.286;2023-07-28T17:10:25;5.03;;;1.80;;
31730;SDS011;18310;55.586;12.286;2023-07-28T17:13:28;4.93;;;2.00;;
31730;SDS011;18310;55.586;12.286;2023-07-28T17:16:31;5.05;;;2.58;;
31730;SDS011;18310;55.586;12.286;2023-07-28T17:19:36;7.47;;;2.40;;
31730;SDS011;18310;55.586;12.286;2023-07-28T17:22:39;3.17;;;1.83;;
31730;SDS011;18310;55.586;12.286;2023-07-28T17:25:42;3.87;;;1.73;;
31730;SDS011;18310;55.586;12.286;2023-07-28T17:28:45;4.35;;;1.70;;
31730;SDS011;18310;55.586;12.286;2023-07-28T17:31:48;4.32;;;1.90;;
31730;SDS011;18310;55.586;12.286;2023-07-28T17:34:54;5.53;;;1.67;;
31730;SDS011;18310;55.586;12.286;2023-07-28T17:37:57;4.35;;;2.55;;
31730;SDS011;18310;55.586;12.286;2023-07-28T17:41:01;4.25;;;2.35;;
31730;SDS011;18310;55.586;12.286;2023-07-28T17:44:05;5.47;;;1.73;;
31730;SDS011;18310;55.586;12.286;2023-07-28T17:47:08;9.57;;;5.03;;
31730;SDS011;18310;55.586;12.286;2023-07-28T17:50:12;13.25;;;3.33;;
31730;SDS011;18310;55.586;12.286;2023-07-28T17:53:17;8.50;;;2.97;;
31730;SDS011;18310;55.586;12.286;2023-07-28T17:56:21;6.80;;;3.72;;
31730;SDS011;18310;55.586;12.286;2023-07-28T17:59:25;6.22;;;2.35;;
31730;SDS011;18310;55.586;12.286;2023-07-28T18:02:29;3.05;;;1.73;;
31730;SDS011;18310;55.586;12.286;2023-07-28T18:05:34;3.50;;;1.65;;
31730;SDS011;18310;55.586;12.286;2023-07-28T18:08:37;3.50;;;1.67;;
31730;SDS011;18310;55.586;12.286;2023-07-28T18:11:40;4.55;;;1.70;;
31730;SDS011;18310;55.586;12.286;2023-07-28T18:17:47;2.50;;;1.40;;
31730;SDS011;18310;55.586;12.286;2023-07-28T18:20:51;4.85;;;1.60;;
31730;SDS011;18310;55.586;12.286;2023-07-28T18:23:54;3.45;;;1.50;;
31730;SDS011;18310;55.586;12.286;2023-07-28T18:26:57;4.93;;;1.52;;
31730;SDS011;18310;55.586;12.286;2023-07-28T18:30:00;5.68;;;1.65;;
31730;SDS011;18310;55.586;12.286;2023-07-28T18:33:05;3.42;;;1.80;;
31730;SDS011;18310;55.586;12.286;2023-07-28T18:36:11;4.53;;;1.38;;
31730;SDS011;18310;55.586;12.286;2023-07-28T18:39:14;3.72;;;2.13;;
31730;SDS011;18310;55.586;12.286;2023-07-28T18:42:17;3.28;;;1.33;;